createdAt,value
2023-02-08T00:00:46.046Z,5.75
2023-02-08T00:03:13.850Z,5.82
2023-02-08T00:05:41.384Z,6.10
2023-02-08T00:08:09.425Z,5.53
2023-02-08T00:10:37.167Z,6.03
2023-02-08T00:13:04.784Z,5.85
2023-02-08T00:15:32.704Z,6.25
2023-02-08T00:18:01.764Z,6.85
2023-02-08T00:20:29.343Z,6.53
2023-02-08T00:22:57.610Z,6.43
2023-02-08T00:25:25.149Z,6.35
2023-02-08T00:27:52.849Z,7.43
2023-02-08T00:30:20.468Z,6.70
2023-02-08T00:32:48.862Z,7.40
2023-02-08T00:35:17.965Z,6.70
2023-02-08T00:37:45.596Z,7.35
2023-02-08T00:40:13.337Z,7.93
2023-02-08T00:42:40.897Z,7.07
2023-02-08T00:45:10.206Z,7.28
2023-02-08T00:47:37.805Z,6.85
2023-02-08T00:50:06.339Z,7.32
2023-02-08T00:52:35.288Z,6.65
2023-02-08T00:55:02.948Z,6.90
2023-02-08T00:57:30.718Z,7.55
2023-02-08T00:59:58.210Z,7.65
2023-02-08T01:02:25.936Z,7.47
2023-02-08T01:04:53.530Z,8.27
2023-02-08T01:07:21.143Z,9.50
2023-02-08T01:09:50.090Z,15.68
2023-02-08T01:12:17.766Z,11.80
2023-02-08T01:14:45.544Z,9.77
2023-02-08T01:17:13.113Z,7.07
2023-02-08T01:19:42.503Z,7.40
2023-02-08T01:22:10.284Z,7.72
2023-02-08T01:24:37.855Z,6.90
2023-02-08T01:27:06.758Z,6.88
2023-02-08T01:29:34.556Z,7.25
2023-02-08T01:32:02.083Z,7.63
2023-02-08T01:34:30.505Z,8.00
2023-02-08T01:36:58.058Z,7.72
2023-02-08T01:39:25.668Z,8.23
2023-02-08T01:41:53.251Z,9.07
2023-02-08T01:44:58.520Z,9.57
2023-02-08T01:47:27.673Z,6.78
2023-02-08T01:49:55.369Z,8.90
2023-02-08T01:52:26.314Z,9.07
2023-02-08T01:54:58.309Z,8.60
2023-02-08T01:57:26.406Z,8.57
2023-02-08T01:59:57.979Z,8.02
2023-02-08T02:02:27.451Z,7.63
2023-02-08T02:04:56.555Z,8.32
2023-02-08T02:07:29.071Z,7.70
2023-02-08T02:10:00.991Z,8.45
2023-02-08T02:12:30.867Z,8.13
2023-02-08T02:14:59.275Z,8.00
2023-02-08T02:17:28.292Z,8.25
2023-02-08T02:20:04.250Z,7.60
2023-02-08T02:22:59.805Z,7.25
2023-02-08T02:25:59.660Z,7.30
2023-02-08T02:29:18.035Z,7.25
2023-02-08T02:32:12.353Z,7.55
2023-02-08T02:34:50.514Z,6.88
2023-02-08T02:37:31.048Z,6.97
2023-02-08T02:40:08.795Z,7.30
2023-02-08T02:43:05.853Z,6.82
2023-02-08T02:45:37.907Z,6.90
2023-02-08T02:48:13.798Z,7.47
2023-02-08T02:50:46.108Z,7.07
2023-02-08T02:53:19.545Z,6.03
2023-02-08T02:55:53.010Z,6.55
2023-02-08T02:58:23.287Z,7.10
2023-02-08T03:00:55.502Z,6.70
2023-02-08T03:03:27.224Z,7.32
2023-02-08T03:05:59.642Z,7.13
2023-02-08T03:08:44.451Z,5.13
2023-02-08T03:11:21.978Z,6.53
2023-02-08T03:14:02.665Z,7.25
2023-02-08T03:16:37.473Z,7.32
2023-02-08T03:19:12.119Z,6.25
2023-02-08T03:21:44.349Z,6.78
2023-02-08T03:24:23.858Z,7.40
2023-02-08T03:26:58.966Z,6.85
2023-02-08T03:29:37.399Z,6.82
2023-02-08T03:32:10.116Z,7.20
2023-02-08T03:34:46.818Z,5.95
2023-02-08T03:37:19.538Z,6.47
2023-02-08T03:39:49.549Z,6.05
2023-02-08T03:42:22.681Z,5.47
2023-02-08T03:47:24.294Z,14.52
2023-02-08T03:49:56.459Z,11.32
2023-02-08T03:52:25.811Z,8.13
2023-02-08T03:54:58.330Z,7.70
2023-02-08T03:57:29.452Z,7.25
2023-02-08T04:00:01.430Z,6.82
2023-02-08T04:02:34.016Z,7.93
2023-02-08T04:05:03.614Z,7.55
2023-02-08T04:07:31.122Z,7.07
2023-02-08T04:09:58.712Z,6.90
2023-02-08T04:12:26.261Z,7.00
2023-02-08T04:14:53.821Z,6.75
2023-02-08T04:17:21.359Z,6.25
2023-02-08T04:19:48.950Z,6.75
2023-02-08T04:22:17.826Z,6.47
2023-02-08T04:24:45.363Z,7.05
2023-02-08T04:27:12.976Z,6.72
2023-02-08T04:29:41.211Z,7.47
2023-02-08T04:32:11.566Z,6.57
2023-02-08T04:34:39.247Z,5.63
2023-02-08T04:37:07.235Z,6.25
2023-02-08T04:39:36.284Z,6.40
2023-02-08T04:42:03.919Z,6.10
2023-02-08T04:44:32.707Z,6.15
2023-02-08T04:47:00.456Z,6.35
2023-02-08T04:49:28.019Z,6.47
2023-02-08T04:51:55.623Z,5.75
2023-02-08T04:54:23.182Z,5.78
2023-02-08T04:56:52.098Z,7.32
2023-02-08T04:59:19.794Z,6.57
2023-02-08T05:01:47.502Z,6.60
2023-02-08T05:04:15.132Z,6.40
2023-02-08T05:06:42.667Z,7.05
2023-02-08T05:09:10.996Z,6.55
2023-02-08T05:11:38.595Z,6.45
2023-02-08T05:14:07.454Z,6.20
2023-02-08T05:16:34.948Z,6.47
2023-02-08T05:19:02.485Z,5.63
2023-02-08T05:21:30.218Z,6.57
2023-02-08T05:23:57.853Z,6.70
2023-02-08T05:26:25.469Z,5.95
2023-02-08T05:28:53.050Z,6.40
2023-02-08T05:31:24.406Z,6.00
2023-02-08T05:33:52.581Z,6.13
2023-02-08T05:36:21.187Z,6.13
2023-02-08T05:38:48.755Z,6.38
2023-02-08T05:41:16.988Z,6.63
2023-02-08T05:43:44.523Z,6.18
2023-02-08T05:46:12.367Z,7.13
2023-02-08T05:48:41.454Z,6.82
2023-02-08T05:51:09.206Z,6.82
2023-02-08T05:53:37.703Z,6.57
2023-02-08T05:56:05.637Z,6.90
2023-02-08T05:58:34.234Z,6.45
2023-02-08T06:01:02.365Z,6.45
2023-02-08T06:03:30.042Z,6.40
2023-02-08T06:06:01.077Z,6.63
2023-02-08T06:08:28.901Z,6.47
2023-02-08T06:10:56.570Z,7.32
2023-02-08T06:13:24.198Z,6.75
2023-02-08T06:15:51.748Z,7.03
2023-02-08T06:18:19.313Z,6.53
2023-02-08T06:20:46.890Z,7.20
2023-02-08T06:23:15.746Z,7.88
2023-02-08T06:25:43.275Z,9.52
2023-02-08T06:28:11.081Z,11.15
2023-02-08T06:30:39.169Z,11.90
2023-02-08T06:33:07.090Z,11.23
2023-02-08T06:35:34.630Z,10.88
2023-02-08T06:38:02.328Z,10.25
2023-02-08T06:40:31.253Z,9.30
2023-02-08T06:42:58.765Z,10.50
2023-02-08T06:45:26.331Z,10.02
2023-02-08T06:47:53.842Z,13.70
2023-02-08T06:50:24.001Z,10.68
2023-02-08T06:52:51.679Z,9.88
2023-02-08T06:55:19.680Z,9.07
2023-02-08T06:57:48.581Z,10.25
2023-02-08T07:00:16.640Z,10.90
2023-02-08T07:02:44.204Z,11.00
2023-02-08T07:05:11.793Z,11.15
2023-02-08T07:07:39.390Z,11.57
2023-02-08T07:10:07.768Z,9.75
2023-02-08T07:12:36.054Z,9.70
2023-02-08T07:15:05.249Z,8.02
2023-02-08T07:17:32.796Z,7.97
2023-02-08T07:20:00.364Z,8.43
2023-02-08T07:22:27.920Z,8.57
2023-02-08T07:24:55.460Z,8.25
2023-02-08T07:27:25.042Z,8.63
2023-02-08T07:29:53.597Z,9.15
2023-02-08T07:32:22.546Z,8.07
2023-02-08T07:34:50.110Z,10.98
2023-02-08T07:37:17.738Z,9.07
2023-02-08T07:39:45.238Z,8.52
2023-02-08T07:42:12.804Z,8.25
2023-02-08T07:44:53.202Z,8.90
2023-02-08T07:47:22.164Z,9.35
2023-02-08T07:49:49.759Z,8.73
2023-02-08T07:52:17.387Z,7.72
2023-02-08T07:54:44.944Z,7.40
2023-02-08T07:57:12.482Z,13.85
2023-02-08T07:59:40.093Z,13.38
2023-02-08T08:02:07.705Z,9.63
2023-02-08T08:04:36.678Z,8.57
2023-02-08T08:07:04.259Z,9.80
2023-02-08T08:09:31.952Z,10.73
2023-02-08T08:11:59.449Z,10.55
2023-02-08T08:14:26.974Z,9.43
2023-02-08T08:16:54.529Z,9.82
2023-02-08T08:19:22.139Z,10.50
2023-02-08T08:21:51.037Z,8.98
2023-02-08T08:24:18.687Z,7.93
2023-02-08T08:26:46.202Z,7.97
2023-02-08T08:29:14.236Z,7.82
2023-02-08T08:31:43.854Z,7.05
2023-02-08T08:34:11.485Z,7.28
2023-02-08T08:36:39.026Z,7.85
2023-02-08T08:39:08.039Z,7.22
2023-02-08T08:41:36.932Z,7.45
2023-02-08T08:44:04.695Z,7.10
2023-02-08T08:46:32.272Z,7.40
2023-02-08T08:48:59.968Z,6.93
2023-02-08T08:51:27.627Z,6.80
2023-02-08T08:53:55.285Z,7.03
2023-02-08T08:56:24.174Z,8.00
2023-02-08T08:58:51.685Z,7.10
2023-02-08T09:01:19.651Z,7.05
2023-02-08T09:03:47.487Z,7.15
2023-02-08T09:06:15.147Z,7.13
2023-02-08T09:08:43.013Z,6.82
2023-02-08T09:11:13.872Z,7.25
2023-02-08T09:13:43.491Z,7.32
2023-02-08T09:16:14.309Z,7.05
2023-02-08T09:18:42.448Z,6.97
2023-02-08T09:21:11.481Z,6.78
2023-02-08T09:23:39.416Z,6.63
2023-02-08T09:26:08.574Z,6.75
2023-02-08T09:28:36.211Z,6.90
2023-02-08T09:31:10.696Z,7.13
2023-02-08T09:33:38.464Z,6.70
2023-02-08T09:36:06.673Z,6.78
2023-02-08T09:38:34.864Z,7.10
2023-02-08T09:41:17.061Z,6.72
2023-02-08T09:43:53.973Z,6.85
2023-02-08T09:46:25.260Z,6.97
2023-02-08T09:48:56.291Z,6.57
2023-02-08T09:51:33.409Z,6.43
2023-02-08T09:54:06.872Z,7.07
2023-02-08T09:56:40.151Z,6.60
2023-02-08T09:59:14.432Z,6.75
2023-02-08T10:01:43.944Z,6.70
2023-02-08T10:04:19.405Z,6.70
2023-02-08T10:06:49.883Z,6.97
2023-02-08T10:09:21.860Z,6.32
2023-02-08T10:12:00.111Z,5.53
2023-02-08T10:14:48.274Z,6.72
2023-02-08T10:17:37.223Z,6.25
2023-02-08T10:20:14.247Z,7.30
2023-02-08T10:22:49.452Z,6.88
2023-02-08T10:25:31.864Z,7.57
2023-02-08T10:28:19.607Z,6.90
2023-02-08T10:30:57.065Z,6.28
2023-02-08T10:33:30.769Z,6.50
2023-02-08T10:35:58.540Z,7.28
2023-02-08T10:38:44.113Z,6.13
2023-02-08T10:41:19.367Z,6.53
2023-02-08T10:46:25.344Z,6.13
2023-02-08T10:49:08.055Z,7.00
2023-02-08T10:51:35.676Z,7.93
2023-02-08T10:54:03.536Z,7.03
2023-02-08T10:56:46.332Z,6.82
2023-02-08T10:59:21.339Z,7.13
2023-02-08T11:01:50.510Z,6.47
2023-02-08T11:04:19.727Z,6.82
2023-02-08T11:06:48.954Z,6.57
2023-02-08T11:09:29.076Z,7.38
2023-02-08T11:11:58.422Z,6.93
2023-02-08T11:14:45.324Z,7.57
2023-02-08T11:17:28.425Z,6.80
2023-02-08T11:19:59.437Z,6.68
2023-02-08T11:22:31.077Z,7.07
2023-02-08T11:25:01.288Z,7.00
2023-02-08T11:27:34.645Z,6.65
2023-02-08T11:32:48.752Z,6.68
2023-02-08T11:35:23.945Z,7.22
2023-02-08T11:37:53.621Z,7.78
2023-02-08T11:40:24.045Z,7.55
2023-02-08T11:42:52.828Z,6.50
2023-02-08T11:45:24.006Z,6.78
2023-02-08T11:47:52.847Z,6.63
2023-02-08T11:50:27.148Z,6.82
2023-02-08T11:52:59.164Z,6.78
2023-02-08T11:55:29.255Z,7.13
2023-02-08T11:58:01.218Z,7.63
2023-02-08T12:00:30.908Z,6.88
2023-02-08T12:03:01.223Z,7.57
2023-02-08T12:05:41.379Z,7.13
2023-02-08T12:08:17.675Z,7.28
2023-02-08T12:11:13.221Z,7.68
2023-02-08T12:13:59.488Z,7.10
2023-02-08T12:16:49.470Z,6.80
2023-02-08T12:19:53.669Z,7.20
2023-02-08T12:25:04.579Z,7.35
2023-02-08T12:27:43.226Z,7.13
2023-02-08T12:30:22.731Z,7.13
2023-02-08T12:33:17.276Z,7.65
2023-02-08T12:36:04.498Z,7.15
2023-02-08T12:39:29.006Z,8.82
2023-02-08T12:42:13.637Z,8.15
2023-02-08T12:44:55.654Z,7.38
2023-02-08T12:47:38.725Z,7.07
2023-02-08T12:50:19.753Z,7.47
2023-02-08T12:52:51.120Z,7.60
2023-02-08T12:55:25.673Z,6.90
2023-02-08T12:57:56.430Z,7.57
2023-02-08T13:00:27.578Z,7.25
2023-02-08T13:03:04.798Z,7.38
2023-02-08T13:05:36.314Z,7.15
2023-02-08T13:08:09.944Z,8.23
2023-02-08T13:10:41.370Z,7.45
2023-02-08T13:13:17.010Z,7.47
2023-02-08T13:15:47.848Z,6.57
2023-02-08T13:18:20.003Z,7.57
2023-02-08T13:20:50.623Z,7.03
2023-02-08T13:23:24.148Z,7.70
2023-02-08T13:25:56.839Z,6.57
2023-02-08T13:28:26.758Z,6.82
2023-02-08T13:30:59.289Z,7.03
2023-02-08T13:33:34.547Z,6.88
2023-02-08T13:36:02.587Z,7.00
2023-02-08T13:38:33.395Z,5.57
2023-02-08T13:41:16.073Z,5.68
2023-02-08T13:43:48.038Z,5.93
2023-02-08T13:46:17.823Z,5.85
2023-02-08T13:48:51.149Z,7.13
2023-02-08T13:52:02.213Z,6.47
2023-02-08T13:54:30.406Z,5.93
2023-02-08T13:56:59.405Z,6.57
2023-02-08T13:59:37.883Z,6.38
2023-02-08T14:02:29.899Z,4.97
2023-02-08T14:05:36.414Z,4.57
2023-02-08T14:08:07.232Z,5.78
2023-02-08T14:10:40.305Z,5.75
2023-02-08T14:13:24.689Z,5.80
2023-02-08T14:16:25.086Z,5.65
2023-02-08T14:18:54.247Z,6.30
2023-02-08T14:21:31.894Z,5.80
2023-02-08T14:24:02.658Z,6.30
2023-02-08T14:26:31.366Z,6.10
2023-02-08T14:29:02.419Z,6.47
2023-02-08T14:31:38.639Z,6.80
2023-02-08T14:34:07.405Z,6.32
2023-02-08T14:36:36.844Z,5.47
2023-02-08T14:39:22.576Z,6.78
2023-02-08T14:42:15.445Z,5.88
2023-02-08T14:44:58.102Z,6.25
2023-02-08T14:48:02.659Z,4.97
2023-02-08T14:50:33.377Z,5.78
2023-02-08T14:53:08.231Z,5.25
2023-02-08T14:55:42.816Z,5.85
2023-02-08T14:58:15.787Z,5.90
2023-02-08T15:00:46.790Z,6.45
2023-02-08T15:03:17.191Z,6.40
2023-02-08T15:05:56.376Z,6.15
2023-02-08T15:08:23.984Z,6.20
2023-02-08T15:10:51.584Z,5.35
2023-02-08T15:13:24.256Z,6.30
2023-02-08T15:15:56.527Z,5.35
2023-02-08T15:18:28.209Z,5.45
2023-02-08T15:21:03.069Z,5.38
2023-02-08T15:23:31.612Z,4.85
2023-02-08T15:26:02.494Z,5.40
2023-02-08T15:28:32.425Z,5.50
2023-02-08T15:31:05.032Z,4.85
2023-02-08T15:33:33.721Z,5.00
2023-02-08T15:36:06.160Z,5.28
2023-02-08T15:38:37.162Z,4.60
2023-02-08T15:41:07.515Z,4.70
2023-02-08T15:43:36.430Z,5.30
2023-02-08T15:46:07.465Z,5.15
2023-02-08T15:48:39.511Z,4.93
2023-02-08T15:51:08.179Z,5.43
2023-02-08T15:53:36.767Z,4.90
2023-02-08T15:56:07.288Z,5.38
2023-02-08T15:58:40.142Z,6.45
2023-02-08T16:01:09.929Z,4.63
2023-02-08T16:03:38.639Z,9.32
2023-02-08T16:06:08.258Z,5.03
2023-02-08T16:08:41.021Z,5.22
2023-02-08T16:11:13.424Z,2.90
2023-02-08T16:13:46.916Z,4.53
2023-02-08T16:16:21.156Z,4.05
2023-02-08T16:18:50.932Z,4.15
2023-02-08T16:21:32.716Z,4.15
2023-02-08T16:24:02.064Z,4.80
2023-02-08T16:26:35.065Z,4.07
2023-02-08T16:29:05.280Z,4.22
2023-02-08T16:31:36.223Z,3.90
2023-02-08T16:34:06.612Z,3.95
2023-02-08T16:36:37.800Z,4.03
2023-02-08T16:39:39.109Z,4.00
2023-02-08T16:42:16.340Z,3.40
2023-02-08T16:45:19.526Z,3.88
2023-02-08T16:47:51.420Z,3.63
2023-02-08T16:50:21.230Z,4.07
2023-02-08T16:52:51.461Z,3.65
2023-02-08T16:55:22.594Z,3.72
2023-02-08T16:57:52.452Z,3.78
2023-02-08T17:00:24.381Z,3.78
2023-02-08T17:02:53.985Z,3.88
2023-02-08T17:05:23.946Z,3.90
2023-02-08T17:07:51.945Z,4.68
2023-02-08T17:10:28.656Z,9.25
2023-02-08T17:13:09.792Z,11.27
2023-02-08T17:15:41.263Z,8.85
2023-02-08T17:18:12.649Z,9.45
2023-02-08T17:20:41.147Z,14.45
2023-02-08T17:23:10.669Z,11.50
2023-02-08T17:25:38.594Z,7.65
2023-02-08T17:28:08.664Z,4.55
2023-02-08T17:30:38.967Z,3.97
2023-02-08T17:33:07.516Z,4.13
2023-02-08T17:35:38.242Z,4.55
2023-02-08T17:38:06.980Z,4.20
2023-02-08T17:40:37.228Z,4.20
2023-02-08T17:43:06.079Z,4.20
2023-02-08T17:45:38.934Z,3.90
2023-02-08T17:48:07.997Z,3.92
2023-02-08T17:50:42.993Z,4.03
2023-02-08T17:53:12.502Z,8.65
2023-02-08T17:55:42.503Z,6.50
2023-02-08T17:58:10.334Z,5.20
2023-02-08T18:00:38.326Z,4.88
2023-02-08T18:03:06.016Z,7.00
2023-02-08T18:05:33.656Z,4.47
2023-02-08T18:08:02.516Z,3.83
2023-02-08T18:10:30.132Z,3.78
2023-02-08T18:12:57.760Z,4.13
2023-02-08T18:15:25.313Z,4.70
2023-02-08T18:17:52.861Z,5.50
2023-02-08T18:20:20.468Z,5.10
2023-02-08T18:22:48.131Z,4.93
2023-02-08T18:25:17.639Z,4.00
2023-02-08T18:27:45.251Z,4.95
2023-02-08T18:30:14.082Z,5.20
2023-02-08T18:32:41.642Z,6.10
2023-02-08T18:35:09.702Z,6.00
2023-02-08T18:37:38.380Z,5.25
2023-02-08T18:40:09.137Z,4.97
2023-02-08T18:42:38.028Z,5.68
2023-02-08T18:45:06.437Z,5.68
2023-02-08T18:47:35.904Z,5.22
2023-02-08T18:50:03.714Z,5.70
2023-02-08T18:52:31.864Z,5.70
2023-02-08T18:54:59.468Z,6.90
2023-02-08T18:57:27.097Z,7.25
2023-02-08T18:59:56.362Z,7.47
2023-02-08T19:02:24.265Z,5.78
2023-02-08T19:04:51.851Z,5.13
2023-02-08T19:07:19.498Z,5.20
2023-02-08T19:09:47.331Z,5.75
2023-02-08T19:12:15.865Z,5.53
2023-02-08T19:14:44.117Z,5.53
2023-02-08T19:17:14.869Z,5.40
2023-02-08T19:19:42.693Z,6.20
2023-02-08T19:22:10.303Z,5.43
2023-02-08T19:24:37.902Z,6.22
2023-02-08T19:27:05.811Z,5.85
2023-02-08T19:29:34.533Z,6.28
2023-02-08T19:32:02.173Z,5.03
2023-02-08T19:34:31.192Z,6.22
2023-02-08T19:36:58.758Z,5.82
2023-02-08T19:39:27.961Z,6.45
2023-02-08T19:41:58.480Z,10.70
2023-02-08T19:44:29.040Z,15.18
2023-02-08T19:46:57.849Z,8.95
2023-02-08T19:49:27.182Z,7.15
2023-02-08T19:51:56.676Z,6.82
2023-02-08T19:54:24.224Z,6.45
2023-02-08T19:56:54.446Z,6.18
2023-02-08T19:59:24.129Z,7.60
2023-02-08T20:01:51.811Z,7.18
2023-02-08T20:04:19.579Z,6.93
2023-02-08T20:06:47.664Z,7.78
2023-02-08T20:09:17.556Z,7.13
2023-02-08T20:11:56.921Z,6.90
2023-02-08T20:14:25.612Z,7.00
2023-02-08T20:16:53.348Z,6.57
2023-02-08T20:19:21.008Z,7.47
2023-02-08T20:21:48.601Z,6.40
2023-02-08T20:24:17.549Z,6.88
2023-02-08T20:26:46.619Z,6.78
2023-02-08T20:29:15.536Z,7.95
2023-02-08T20:31:46.519Z,9.93
2023-02-08T20:34:16.848Z,9.10
2023-02-08T20:37:04.503Z,11.32
2023-02-08T20:39:36.449Z,10.02
2023-02-08T20:42:04.488Z,9.80
2023-02-08T20:44:32.410Z,11.35
2023-02-08T20:47:00.612Z,9.82
2023-02-08T20:49:29.307Z,8.93
2023-02-08T20:51:57.332Z,7.88
2023-02-08T20:54:25.523Z,8.63
2023-02-08T20:56:55.029Z,8.68
2023-02-08T20:59:22.952Z,7.72
2023-02-08T21:01:51.131Z,6.88
2023-02-08T21:04:20.213Z,7.20
2023-02-08T21:06:47.930Z,6.90
2023-02-08T21:09:18.314Z,7.05
2023-02-08T21:11:47.113Z,7.55
2023-02-08T21:14:18.842Z,7.10
2023-02-08T21:16:47.725Z,7.45
2023-02-08T21:19:15.903Z,12.10
2023-02-08T21:21:43.919Z,10.13
2023-02-08T21:24:11.898Z,8.00
2023-02-08T21:26:39.716Z,8.55
2023-02-08T21:29:07.895Z,6.80
2023-02-08T21:31:37.510Z,8.30
2023-02-08T21:34:10.889Z,7.05
2023-02-08T21:36:38.493Z,7.25
2023-02-08T21:39:06.068Z,7.47
2023-02-08T21:41:34.567Z,7.22
2023-02-08T21:44:04.333Z,8.30
2023-02-08T21:46:33.513Z,7.35
2023-02-08T21:49:19.896Z,7.90
2023-02-08T21:52:05.854Z,7.38
2023-02-08T21:54:52.956Z,7.75
2023-02-08T21:57:22.437Z,7.72
2023-02-08T21:59:52.029Z,7.78
2023-02-08T22:02:23.280Z,8.73
2023-02-08T22:04:53.038Z,9.40
2023-02-08T22:07:21.152Z,9.13
2023-02-08T22:09:48.918Z,8.57
2023-02-08T22:12:18.839Z,8.85
2023-02-08T22:14:46.453Z,9.68
2023-02-08T22:17:14.812Z,10.30
2023-02-08T22:19:43.479Z,9.00
2023-02-08T22:22:12.915Z,8.95
2023-02-08T22:24:40.803Z,9.95
2023-02-08T22:27:08.799Z,10.00
2023-02-08T22:29:36.751Z,9.20
2023-02-08T22:32:05.453Z,9.15
2023-02-08T22:34:33.212Z,9.10
2023-02-08T22:37:03.567Z,9.10
2023-02-08T22:39:34.072Z,8.80
2023-02-08T22:42:01.767Z,9.48
2023-02-08T22:44:29.371Z,10.13
2023-02-08T22:46:57.434Z,9.10
2023-02-08T22:49:25.017Z,9.18
2023-02-08T22:51:52.590Z,9.13
2023-02-08T22:54:20.452Z,10.13
2023-02-08T22:56:49.328Z,9.88
2023-02-08T22:59:17.416Z,10.30
2023-02-08T23:01:48.512Z,10.25
2023-02-08T23:04:16.390Z,9.63
2023-02-08T23:06:44.115Z,9.80
2023-02-08T23:09:13.021Z,10.60
2023-02-08T23:11:40.952Z,10.30
2023-02-08T23:14:10.056Z,11.05
2023-02-08T23:16:37.838Z,11.80
2023-02-08T23:19:06.012Z,10.48
2023-02-08T23:21:33.959Z,11.35
2023-02-08T23:24:01.643Z,10.73
2023-02-08T23:26:29.296Z,10.45
2023-02-08T23:28:57.085Z,10.68
2023-02-08T23:31:26.341Z,9.65
2023-02-08T23:33:54.132Z,10.50
2023-02-08T23:36:23.832Z,9.95
2023-02-08T23:38:51.732Z,9.80
2023-02-08T23:41:21.639Z,9.98
2023-02-08T23:43:51.505Z,8.85
2023-02-08T23:46:21.550Z,9.45
2023-02-08T23:48:51.169Z,9.80
2023-02-08T23:51:20.637Z,9.52
2023-02-08T23:53:49.249Z,9.98
2023-02-08T23:56:22.209Z,9.50
2023-02-08T23:58:52.197Z,9.02
